sensor_id;sensor_type;location;lat;lon;timestamp;P1;durP1;ratioP1;P2;durP2;ratioP2
30605;SDS011;17371;51.328;3.860;2023-04-01T00:02:24;19.27;;;3.23;;
30605;SDS011;17371;51.328;3.860;2023-04-01T00:04:49;14.43;;;3.40;;
30605;SDS011;17371;51.328;3.860;2023-04-01T00:07:16;14.67;;;3.37;;
30605;SDS011;17371;51.328;3.860;2023-04-01T00:09:41;21.88;;;4.43;;
30605;SDS011;17371;51.328;3.860;2023-04-01T00:12:07;20.03;;;4.27;;
30605;SDS011;17371;51.328;3.860;2023-04-01T00:14:32;18.00;;;4.53;;
30605;SDS011;17371;51.328;3.860;2023-04-01T00:16:57;25.67;;;4.97;;
30605;SDS011;17371;51.328;3.860;2023-04-01T00:19:23;20.95;;;5.28;;
30605;SDS011;17371;51.328;3.860;2023-04-01T00:21:48;10.63;;;2.77;;
30605;SDS011;17371;51.328;3.860;2023-04-01T00:24:15;21.53;;;3.70;;
30605;SDS011;17371;51.328;3.860;2023-04-01T00:26:40;23.08;;;4.50;;
30605;SDS011;17371;51.328;3.860;2023-04-01T00:29:05;19.43;;;4.60;;
30605;SDS011;17371;51.328;3.860;2023-04-01T00:31:31;31.50;;;4.40;;
30605;SDS011;17371;51.328;3.860;2023-04-01T00:33:56;24.27;;;4.60;;
30605;SDS011;17371;51.328;3.860;2023-04-01T00:36:22;22.33;;;4.67;;
30605;SDS011;17371;51.328;3.860;2023-04-01T00:38:47;26.70;;;5.40;;
30605;SDS011;17371;51.328;3.860;2023-04-01T00:41:14;17.05;;;4.43;;
30605;SDS011;17371;51.328;3.860;2023-04-01T00:43:40;27.67;;;5.03;;
30605;SDS011;17371;51.328;3.860;2023-04-01T00:46:06;24.27;;;3.63;;
30605;SDS011;17371;51.328;3.860;2023-04-01T00:48:33;17.70;;;3.67;;
30605;SDS011;17371;51.328;3.860;2023-04-01T00:50:59;27.47;;;4.90;;
30605;SDS011;17371;51.328;3.860;2023-04-01T00:53:26;22.00;;;3.83;;
30605;SDS011;17371;51.328;3.860;2023-04-01T00:55:54;18.15;;;5.00;;
30605;SDS011;17371;51.328;3.860;2023-04-01T00:58:24;21.88;;;5.07;;
30605;SDS011;17371;51.328;3.860;2023-04-01T01:00:50;21.85;;;5.57;;
30605;SDS011;17371;51.328;3.860;2023-04-01T01:03:16;25.97;;;5.30;;
30605;SDS011;17371;51.328;3.860;2023-04-01T01:08:49;16.80;;;4.10;;
30605;SDS011;17371;51.328;3.860;2023-04-01T01:11:25;21.80;;;5.50;;
30605;SDS011;17371;51.328;3.860;2023-04-01T01:14:05;11.55;;;3.85;;
30605;SDS011;17371;51.328;3.860;2023-04-01T01:16:36;19.60;;;5.30;;
30605;SDS011;17371;51.328;3.860;2023-04-01T01:19:07;10.82;;;4.15;;
30605;SDS011;17371;51.328;3.860;2023-04-01T01:21:48;10.57;;;2.83;;
30605;SDS011;17371;51.328;3.860;2023-04-01T01:24:25;11.25;;;4.63;;
30605;SDS011;17371;51.328;3.860;2023-04-01T01:27:02;14.82;;;4.47;;
30605;SDS011;17371;51.328;3.860;2023-04-01T01:29:39;14.38;;;4.63;;
30605;SDS011;17371;51.328;3.860;2023-04-01T01:32:12;9.10;;;4.03;;
30605;SDS011;17371;51.328;3.860;2023-04-01T01:34:44;11.07;;;3.27;;
30605;SDS011;17371;51.328;3.860;2023-04-01T01:37:14;12.90;;;3.90;;
30605;SDS011;17371;51.328;3.860;2023-04-01T01:39:41;13.38;;;4.43;;
30605;SDS011;17371;51.328;3.860;2023-04-01T01:42:09;10.32;;;4.28;;
30605;SDS011;17371;51.328;3.860;2023-04-01T01:44:36;9.23;;;4.43;;
30605;SDS011;17371;51.328;3.860;2023-04-01T01:47:03;18.47;;;5.70;;
30605;SDS011;17371;51.328;3.860;2023-04-01T01:49:28;13.55;;;4.88;;
30605;SDS011;17371;51.328;3.860;2023-04-01T01:51:56;9.23;;;4.53;;
30605;SDS011;17371;51.328;3.860;2023-04-01T01:54:23;14.15;;;5.40;;
30605;SDS011;17371;51.328;3.860;2023-04-01T01:56:50;9.10;;;4.17;;
30605;SDS011;17371;51.328;3.860;2023-04-01T01:59:17;12.32;;;4.30;;
30605;SDS011;17371;51.328;3.860;2023-04-01T02:01:46;13.63;;;3.10;;
30605;SDS011;17371;51.328;3.860;2023-04-01T02:04:14;12.63;;;3.65;;
30605;SDS011;17371;51.328;3.860;2023-04-01T02:06:41;6.70;;;3.17;;
30605;SDS011;17371;51.328;3.860;2023-04-01T02:09:10;11.63;;;4.60;;
30605;SDS011;17371;51.328;3.860;2023-04-01T02:11:38;10.40;;;4.20;;
30605;SDS011;17371;51.328;3.860;2023-04-01T02:14:07;8.57;;;3.40;;
30605;SDS011;17371;51.328;3.860;2023-04-01T02:16:35;6.22;;;3.60;;
30605;SDS011;17371;51.328;3.860;2023-04-01T02:19:03;6.80;;;2.45;;
30605;SDS011;17371;51.328;3.860;2023-04-01T02:21:30;4.67;;;1.90;;
30605;SDS011;17371;51.328;3.860;2023-04-01T02:23:56;6.95;;;2.97;;
30605;SDS011;17371;51.328;3.860;2023-04-01T02:26:23;8.30;;;3.80;;
30605;SDS011;17371;51.328;3.860;2023-04-01T02:28:51;11.02;;;4.15;;
30605;SDS011;17371;51.328;3.860;2023-04-01T02:31:17;11.93;;;3.63;;
30605;SDS011;17371;51.328;3.860;2023-04-01T02:33:43;7.30;;;2.53;;
30605;SDS011;17371;51.328;3.860;2023-04-01T02:36:10;13.35;;;4.07;;
30605;SDS011;17371;51.328;3.860;2023-04-01T02:38:36;11.20;;;4.53;;
30605;SDS011;17371;51.328;3.860;2023-04-01T02:41:01;8.23;;;3.38;;
30605;SDS011;17371;51.328;3.860;2023-04-01T02:43:27;11.57;;;3.67;;
30605;SDS011;17371;51.328;3.860;2023-04-01T02:45:54;11.45;;;4.60;;
30605;SDS011;17371;51.328;3.860;2023-04-01T02:48:20;11.87;;;4.50;;
30605;SDS011;17371;51.328;3.860;2023-04-01T02:50:45;7.28;;;2.55;;
30605;SDS011;17371;51.328;3.860;2023-04-01T02:53:10;10.53;;;4.00;;
30605;SDS011;17371;51.328;3.860;2023-04-01T02:55:36;4.70;;;2.37;;
30605;SDS011;17371;51.328;3.860;2023-04-01T02:58:01;8.00;;;3.63;;
30605;SDS011;17371;51.328;3.860;2023-04-01T03:00:27;6.88;;;3.40;;
30605;SDS011;17371;51.328;3.860;2023-04-01T03:02:53;18.08;;;4.82;;
30605;SDS011;17371;51.328;3.860;2023-04-01T03:05:19;10.82;;;3.58;;
30605;SDS011;17371;51.328;3.860;2023-04-01T03:07:45;13.57;;;4.50;;
30605;SDS011;17371;51.328;3.860;2023-04-01T03:10:11;15.15;;;5.22;;
30605;SDS011;17371;51.328;3.860;2023-04-01T03:12:37;15.50;;;4.90;;
30605;SDS011;17371;51.328;3.860;2023-04-01T03:15:02;5.83;;;2.67;;
30605;SDS011;17371;51.328;3.860;2023-04-01T03:17:28;15.02;;;4.47;;
30605;SDS011;17371;51.328;3.860;2023-04-01T03:19:55;13.43;;;5.17;;
30605;SDS011;17371;51.328;3.860;2023-04-01T03:22:22;15.45;;;5.30;;
30605;SDS011;17371;51.328;3.860;2023-04-01T03:24:47;12.90;;;4.00;;
30605;SDS011;17371;51.328;3.860;2023-04-01T03:27:12;7.60;;;3.77;;
30605;SDS011;17371;51.328;3.860;2023-04-01T03:29:38;13.23;;;4.25;;
30605;SDS011;17371;51.328;3.860;2023-04-01T03:32:03;8.50;;;2.93;;
30605;SDS011;17371;51.328;3.860;2023-04-01T03:34:29;10.23;;;4.13;;
30605;SDS011;17371;51.328;3.860;2023-04-01T03:36:55;12.23;;;4.80;;
30605;SDS011;17371;51.328;3.860;2023-04-01T03:39:21;11.77;;;4.03;;
30605;SDS011;17371;51.328;3.860;2023-04-01T03:41:46;7.83;;;4.10;;
30605;SDS011;17371;51.328;3.860;2023-04-01T03:44:12;8.80;;;3.97;;
30605;SDS011;17371;51.328;3.860;2023-04-01T03:46:37;11.57;;;4.45;;
30605;SDS011;17371;51.328;3.860;2023-04-01T03:49:05;10.03;;;3.83;;
30605;SDS011;17371;51.328;3.860;2023-04-01T03:51:31;10.20;;;3.70;;
30605;SDS011;17371;51.328;3.860;2023-04-01T03:53:58;12.40;;;4.20;;
30605;SDS011;17371;51.328;3.860;2023-04-01T03:56:24;7.03;;;3.67;;
30605;SDS011;17371;51.328;3.860;2023-04-01T03:58:49;11.77;;;4.38;;
30605;SDS011;17371;51.328;3.860;2023-04-01T04:01:15;8.07;;;3.53;;
30605;SDS011;17371;51.328;3.860;2023-04-01T04:03:42;7.65;;;3.30;;
30605;SDS011;17371;51.328;3.860;2023-04-01T04:06:10;13.60;;;4.97;;
30605;SDS011;17371;51.328;3.860;2023-04-01T04:08:36;12.82;;;4.53;;
30605;SDS011;17371;51.328;3.860;2023-04-01T04:11:02;13.50;;;4.60;;
30605;SDS011;17371;51.328;3.860;2023-04-01T04:13:28;13.43;;;4.88;;
30605;SDS011;17371;51.328;3.860;2023-04-01T04:15:53;8.90;;;4.57;;
30605;SDS011;17371;51.328;3.860;2023-04-01T04:18:19;8.07;;;2.70;;
30605;SDS011;17371;51.328;3.860;2023-04-01T04:20:44;11.30;;;3.80;;
30605;SDS011;17371;51.328;3.860;2023-04-01T04:23:10;11.33;;;3.57;;
30605;SDS011;17371;51.328;3.860;2023-04-01T04:25:35;11.67;;;3.50;;
30605;SDS011;17371;51.328;3.860;2023-04-01T04:28:02;5.27;;;2.60;;
30605;SDS011;17371;51.328;3.860;2023-04-01T04:30:27;6.35;;;2.67;;
30605;SDS011;17371;51.328;3.860;2023-04-01T04:32:52;4.13;;;1.90;;
30605;SDS011;17371;51.328;3.860;2023-04-01T04:35:18;4.65;;;2.08;;
30605;SDS011;17371;51.328;3.860;2023-04-01T04:37:43;8.93;;;2.92;;
30605;SDS011;17371;51.328;3.860;2023-04-01T04:40:09;3.33;;;1.90;;
30605;SDS011;17371;51.328;3.860;2023-04-01T04:42:34;4.50;;;1.50;;
30605;SDS011;17371;51.328;3.860;2023-04-01T04:45:01;7.60;;;2.63;;
30605;SDS011;17371;51.328;3.860;2023-04-01T04:47:26;4.43;;;1.38;;
30605;SDS011;17371;51.328;3.860;2023-04-01T04:49:52;4.43;;;1.87;;
30605;SDS011;17371;51.328;3.860;2023-04-01T04:52:17;7.83;;;2.17;;
30605;SDS011;17371;51.328;3.860;2023-04-01T04:54:42;6.50;;;1.55;;
30605;SDS011;17371;51.328;3.860;2023-04-01T04:57:08;4.05;;;1.50;;
30605;SDS011;17371;51.328;3.860;2023-04-01T04:59:33;3.77;;;1.40;;
30605;SDS011;17371;51.328;3.860;2023-04-01T05:02:00;11.53;;;2.13;;
30605;SDS011;17371;51.328;3.860;2023-04-01T05:04:25;3.42;;;1.08;;
30605;SDS011;17371;51.328;3.860;2023-04-01T05:06:51;2.87;;;1.23;;
30605;SDS011;17371;51.328;3.860;2023-04-01T05:09:16;3.73;;;1.60;;
30605;SDS011;17371;51.328;3.860;2023-04-01T05:11:41;7.73;;;1.63;;
30605;SDS011;17371;51.328;3.860;2023-04-01T05:14:11;3.90;;;1.43;;
30605;SDS011;17371;51.328;3.860;2023-04-01T05:16:37;3.10;;;1.40;;
30605;SDS011;17371;51.328;3.860;2023-04-01T05:19:04;2.80;;;1.30;;
30605;SDS011;17371;51.328;3.860;2023-04-01T05:21:29;5.70;;;1.40;;
30605;SDS011;17371;51.328;3.860;2023-04-01T05:23:54;3.90;;;1.70;;
30605;SDS011;17371;51.328;3.860;2023-04-01T05:26:20;4.33;;;1.70;;
30605;SDS011;17371;51.328;3.860;2023-04-01T05:28:45;5.40;;;1.50;;
30605;SDS011;17371;51.328;3.860;2023-04-01T05:31:11;4.88;;;1.40;;
30605;SDS011;17371;51.328;3.860;2023-04-01T05:33:36;2.63;;;1.57;;
30605;SDS011;17371;51.328;3.860;2023-04-01T05:36:07;1.50;;;1.20;;
30605;SDS011;17371;51.328;3.860;2023-04-01T05:38:33;4.18;;;1.13;;
30605;SDS011;17371;51.328;3.860;2023-04-01T05:40:58;1.93;;;1.40;;
30605;SDS011;17371;51.328;3.860;2023-04-01T05:43:24;3.47;;;1.20;;
30605;SDS011;17371;51.328;3.860;2023-04-01T05:45:49;3.92;;;1.35;;
30605;SDS011;17371;51.328;3.860;2023-04-01T05:48:15;2.17;;;1.50;;
30605;SDS011;17371;51.328;3.860;2023-04-01T05:50:40;2.73;;;1.23;;
30605;SDS011;17371;51.328;3.860;2023-04-01T05:53:07;4.67;;;2.00;;
30605;SDS011;17371;51.328;3.860;2023-04-01T05:55:34;5.30;;;1.77;;
30605;SDS011;17371;51.328;3.860;2023-04-01T05:57:59;3.10;;;1.30;;
30605;SDS011;17371;51.328;3.860;2023-04-01T06:00:25;6.37;;;1.73;;
30605;SDS011;17371;51.328;3.860;2023-04-01T06:02:50;2.40;;;1.43;;
30605;SDS011;17371;51.328;3.860;2023-04-01T06:05:17;5.43;;;1.60;;
30605;SDS011;17371;51.328;3.860;2023-04-01T06:07:43;6.50;;;2.15;;
30605;SDS011;17371;51.328;3.860;2023-04-01T06:10:11;3.03;;;1.30;;
30605;SDS011;17371;51.328;3.860;2023-04-01T06:12:40;2.65;;;1.80;;
30605;SDS011;17371;51.328;3.860;2023-04-01T06:15:13;4.22;;;1.70;;
30605;SDS011;17371;51.328;3.860;2023-04-01T06:17:52;3.77;;;2.07;;
30605;SDS011;17371;51.328;3.860;2023-04-01T06:20:28;5.10;;;1.85;;
30605;SDS011;17371;51.328;3.860;2023-04-01T06:23:01;4.10;;;1.88;;
30605;SDS011;17371;51.328;3.860;2023-04-01T06:25:38;5.38;;;1.83;;
30605;SDS011;17371;51.328;3.860;2023-04-01T06:28:22;8.63;;;2.80;;
30605;SDS011;17371;51.328;3.860;2023-04-01T06:31:01;4.27;;;1.77;;
30605;SDS011;17371;51.328;3.860;2023-04-01T06:33:35;8.93;;;2.00;;
30605;SDS011;17371;51.328;3.860;2023-04-01T06:36:13;2.20;;;1.55;;
30605;SDS011;17371;51.328;3.860;2023-04-01T06:38:47;8.77;;;2.22;;
30605;SDS011;17371;51.328;3.860;2023-04-01T06:41:27;7.63;;;1.90;;
30605;SDS011;17371;51.328;3.860;2023-04-01T06:44:19;7.93;;;1.80;;
30605;SDS011;17371;51.328;3.860;2023-04-01T06:46:50;9.00;;;1.85;;
30605;SDS011;17371;51.328;3.860;2023-04-01T06:49:29;4.32;;;1.80;;
30605;SDS011;17371;51.328;3.860;2023-04-01T06:52:02;3.70;;;2.00;;
30605;SDS011;17371;51.328;3.860;2023-04-01T06:54:34;9.88;;;2.50;;
30605;SDS011;17371;51.328;3.860;2023-04-01T06:57:03;5.33;;;2.10;;
30605;SDS011;17371;51.328;3.860;2023-04-01T06:59:31;4.72;;;1.88;;
30605;SDS011;17371;51.328;3.860;2023-04-01T07:01:59;4.45;;;1.60;;
30605;SDS011;17371;51.328;3.860;2023-04-01T07:04:26;7.50;;;2.50;;
30605;SDS011;17371;51.328;3.860;2023-04-01T07:06:55;6.70;;;2.00;;
30605;SDS011;17371;51.328;3.860;2023-04-01T07:09:24;10.27;;;2.30;;
30605;SDS011;17371;51.328;3.860;2023-04-01T07:11:51;4.85;;;2.00;;
30605;SDS011;17371;51.328;3.860;2023-04-01T07:14:20;9.82;;;2.20;;
30605;SDS011;17371;51.328;3.860;2023-04-01T07:16:48;8.90;;;1.95;;
30605;SDS011;17371;51.328;3.860;2023-04-01T07:19:17;6.18;;;1.52;;
30605;SDS011;17371;51.328;3.860;2023-04-01T07:21:45;8.47;;;2.30;;
30605;SDS011;17371;51.328;3.860;2023-04-01T07:24:14;3.28;;;1.70;;
30605;SDS011;17371;51.328;3.860;2023-04-01T07:26:42;5.13;;;2.15;;
30605;SDS011;17371;51.328;3.860;2023-04-01T07:29:09;3.10;;;1.63;;
30605;SDS011;17371;51.328;3.860;2023-04-01T07:31:45;5.38;;;1.70;;
30605;SDS011;17371;51.328;3.860;2023-04-01T07:34:19;6.85;;;2.03;;
30605;SDS011;17371;51.328;3.860;2023-04-01T07:36:48;7.80;;;2.03;;
30605;SDS011;17371;51.328;3.860;2023-04-01T07:39:22;11.50;;;2.10;;
30605;SDS011;17371;51.328;3.860;2023-04-01T07:41:55;7.72;;;2.85;;
30605;SDS011;17371;51.328;3.860;2023-04-01T07:44:27;6.22;;;1.95;;
30605;SDS011;17371;51.328;3.860;2023-04-01T07:47:08;4.25;;;1.67;;
30605;SDS011;17371;51.328;3.860;2023-04-01T07:49:42;6.32;;;2.30;;
30605;SDS011;17371;51.328;3.860;2023-04-01T07:52:12;7.20;;;1.90;;
30605;SDS011;17371;51.328;3.860;2023-04-01T07:54:42;14.13;;;2.55;;
30605;SDS011;17371;51.328;3.860;2023-04-01T07:57:12;2.60;;;1.50;;
30605;SDS011;17371;51.328;3.860;2023-04-01T07:59:42;7.25;;;2.30;;
30605;SDS011;17371;51.328;3.860;2023-04-01T08:02:18;5.72;;;2.10;;
30605;SDS011;17371;51.328;3.860;2023-04-01T08:04:51;13.93;;;2.10;;
30605;SDS011;17371;51.328;3.860;2023-04-01T08:07:22;4.85;;;1.60;;
30605;SDS011;17371;51.328;3.860;2023-04-01T08:09:50;5.75;;;2.05;;
30605;SDS011;17371;51.328;3.860;2023-04-01T08:12:21;2.22;;;1.40;;
30605;SDS011;17371;51.328;3.860;2023-04-01T08:14:56;9.05;;;2.03;;
30605;SDS011;17371;51.328;3.860;2023-04-01T08:17:30;11.30;;;2.43;;
30605;SDS011;17371;51.328;3.860;2023-04-01T08:20:01;8.80;;;3.20;;
30605;SDS011;17371;51.328;3.860;2023-04-01T08:22:42;11.40;;;3.35;;
30605;SDS011;17371;51.328;3.860;2023-04-01T08:25:09;4.22;;;2.38;;
30605;SDS011;17371;51.328;3.860;2023-04-01T08:27:39;12.13;;;3.75;;
30605;SDS011;17371;51.328;3.860;2023-04-01T08:30:16;11.27;;;2.27;;
30605;SDS011;17371;51.328;3.860;2023-04-01T08:32:46;4.85;;;1.50;;
30605;SDS011;17371;51.328;3.860;2023-04-01T08:35:14;8.38;;;2.83;;
30605;SDS011;17371;51.328;3.860;2023-04-01T08:37:45;1.98;;;1.27;;
30605;SDS011;17371;51.328;3.860;2023-04-01T08:40:17;8.43;;;2.07;;
30605;SDS011;17371;51.328;3.860;2023-04-01T08:42:57;10.07;;;1.67;;
30605;SDS011;17371;51.328;3.860;2023-04-01T08:45:37;11.18;;;2.50;;
30605;SDS011;17371;51.328;3.860;2023-04-01T08:56:42;6.57;;;1.67;;
30605;SDS011;17371;51.328;3.860;2023-04-01T08:59:19;4.95;;;2.38;;
30605;SDS011;17371;51.328;3.860;2023-04-01T09:01:56;5.63;;;3.35;;
30605;SDS011;17371;51.328;3.860;2023-04-01T09:04:33;3.42;;;1.65;;
30605;SDS011;17371;51.328;3.860;2023-04-01T09:07:08;4.80;;;1.40;;
30605;SDS011;17371;51.328;3.860;2023-04-01T09:09:55;6.95;;;1.83;;
30605;SDS011;17371;51.328;3.860;2023-04-01T09:15:48;7.07;;;1.70;;
30605;SDS011;17371;51.328;3.860;2023-04-01T09:21:26;7.43;;;1.67;;
30605;SDS011;17371;51.328;3.860;2023-04-01T09:27:02;4.18;;;1.92;;
30605;SDS011;17371;51.328;3.860;2023-04-01T09:29:33;5.95;;;1.73;;
30605;SDS011;17371;51.328;3.860;2023-04-01T09:32:11;10.55;;;2.08;;
30605;SDS011;17371;51.328;3.860;2023-04-01T09:34:51;6.00;;;1.40;;
30605;SDS011;17371;51.328;3.860;2023-04-01T09:37:20;9.13;;;1.77;;
30605;SDS011;17371;51.328;3.860;2023-04-01T09:39:50;9.30;;;2.38;;
30605;SDS011;17371;51.328;3.860;2023-04-01T09:42:41;6.05;;;2.00;;
30605;SDS011;17371;51.328;3.860;2023-04-01T09:45:09;8.50;;;2.08;;
30605;SDS011;17371;51.328;3.860;2023-04-01T09:47:46;7.60;;;1.93;;
30605;SDS011;17371;51.328;3.860;2023-04-01T09:50:27;8.15;;;2.30;;
30605;SDS011;17371;51.328;3.860;2023-04-01T09:53:00;11.88;;;2.92;;
30605;SDS011;17371;51.328;3.860;2023-04-01T10:11:06;3.28;;;1.42;;
30605;SDS011;17371;51.328;3.860;2023-04-01T10:19:55;4.13;;;1.50;;
30605;SDS011;17371;51.328;3.860;2023-04-01T10:22:32;9.07;;;1.90;;
30605;SDS011;17371;51.328;3.860;2023-04-01T10:28:09;13.15;;;2.00;;
30605;SDS011;17371;51.328;3.860;2023-04-01T10:33:38;9.20;;;2.42;;
30605;SDS011;17371;51.328;3.860;2023-04-01T10:36:43;7.15;;;1.40;;
30605;SDS011;17371;51.328;3.860;2023-04-01T10:42:20;4.63;;;1.38;;
30605;SDS011;17371;51.328;3.860;2023-04-01T10:45:20;4.73;;;1.47;;
30605;SDS011;17371;51.328;3.860;2023-04-01T10:48:10;10.27;;;1.60;;
30605;SDS011;17371;51.328;3.860;2023-04-01T10:50:50;2.80;;;1.45;;
30605;SDS011;17371;51.328;3.860;2023-04-01T10:53:31;5.03;;;1.25;;
30605;SDS011;17371;51.328;3.860;2023-04-01T11:11:35;2.45;;;1.60;;
30605;SDS011;17371;51.328;3.860;2023-04-01T11:14:43;6.30;;;1.60;;
30605;SDS011;17371;51.328;3.860;2023-04-01T11:17:42;4.78;;;2.00;;
30605;SDS011;17371;51.328;3.860;2023-04-01T11:23:48;3.20;;;1.60;;
30605;SDS011;17371;51.328;3.860;2023-04-01T11:26:19;9.63;;;2.10;;
30605;SDS011;17371;51.328;3.860;2023-04-01T11:29:08;4.43;;;1.50;;
30605;SDS011;17371;51.328;3.860;2023-04-01T11:31:58;3.03;;;1.63;;
30605;SDS011;17371;51.328;3.860;2023-04-01T11:34:35;2.13;;;1.55;;
30605;SDS011;17371;51.328;3.860;2023-04-01T11:37:11;5.25;;;1.48;;
30605;SDS011;17371;51.328;3.860;2023-04-01T11:39:44;4.25;;;1.67;;
30605;SDS011;17371;51.328;3.860;2023-04-01T11:42:17;3.33;;;1.80;;
30605;SDS011;17371;51.328;3.860;2023-04-01T11:44:47;5.68;;;1.88;;
30605;SDS011;17371;51.328;3.860;2023-04-01T11:47:20;4.45;;;1.77;;
30605;SDS011;17371;51.328;3.860;2023-04-01T11:52:44;4.97;;;1.75;;
30605;SDS011;17371;51.328;3.860;2023-04-01T11:55:24;3.97;;;1.80;;
30605;SDS011;17371;51.328;3.860;2023-04-01T11:57:57;7.43;;;1.60;;
30605;SDS011;17371;51.328;3.860;2023-04-01T12:00:51;5.75;;;2.20;;
30605;SDS011;17371;51.328;3.860;2023-04-01T12:03:33;5.28;;;1.10;;
30605;SDS011;17371;51.328;3.860;2023-04-01T12:06:05;5.93;;;1.23;;
30605;SDS011;17371;51.328;3.860;2023-04-01T12:08:38;2.50;;;1.17;;
30605;SDS011;17371;51.328;3.860;2023-04-01T12:11:12;8.27;;;1.60;;
30605;SDS011;17371;51.328;3.860;2023-04-01T12:13:42;4.80;;;1.80;;
30605;SDS011;17371;51.328;3.860;2023-04-01T12:16:19;3.40;;;1.40;;
30605;SDS011;17371;51.328;3.860;2023-04-01T12:18:52;2.28;;;1.20;;
30605;SDS011;17371;51.328;3.860;2023-04-01T12:21:22;5.57;;;1.27;;
30605;SDS011;17371;51.328;3.860;2023-04-01T12:23:58;3.40;;;1.23;;
30605;SDS011;17371;51.328;3.860;2023-04-01T12:26:55;1.42;;;1.20;;
30605;SDS011;17371;51.328;3.860;2023-04-01T12:29:38;6.95;;;1.60;;
30605;SDS011;17371;51.328;3.860;2023-04-01T12:32:26;5.13;;;1.35;;
30605;SDS011;17371;51.328;3.860;2023-04-01T12:35:02;6.73;;;1.20;;
30605;SDS011;17371;51.328;3.860;2023-04-01T12:37:39;5.78;;;1.27;;
30605;SDS011;17371;51.328;3.860;2023-04-01T12:40:20;3.22;;;1.40;;
30605;SDS011;17371;51.328;3.860;2023-04-01T12:43:00;5.05;;;1.40;;
30605;SDS011;17371;51.328;3.860;2023-04-01T12:45:31;5.32;;;1.65;;
30605;SDS011;17371;51.328;3.860;2023-04-01T12:54:02;2.90;;;1.13;;
30605;SDS011;17371;51.328;3.860;2023-04-01T12:56:47;2.33;;;1.30;;
30605;SDS011;17371;51.328;3.860;2023-04-01T13:02:12;2.70;;;1.37;;
30605;SDS011;17371;51.328;3.860;2023-04-01T13:04:43;4.03;;;1.27;;
30605;SDS011;17371;51.328;3.860;2023-04-01T13:07:40;5.65;;;1.63;;
30605;SDS011;17371;51.328;3.860;2023-04-01T13:10:14;6.07;;;1.27;;
30605;SDS011;17371;51.328;3.860;2023-04-01T13:12:55;12.13;;;1.90;;
30605;SDS011;17371;51.328;3.860;2023-04-01T13:15:26;4.30;;;1.50;;
30605;SDS011;17371;51.328;3.860;2023-04-01T13:17:56;6.40;;;1.20;;
30605;SDS011;17371;51.328;3.860;2023-04-01T13:20:28;6.65;;;1.73;;
30605;SDS011;17371;51.328;3.860;2023-04-01T13:23:07;2.40;;;1.00;;
30605;SDS011;17371;51.328;3.860;2023-04-01T13:25:41;4.40;;;1.27;;
30605;SDS011;17371;51.328;3.860;2023-04-01T13:28:13;3.77;;;1.37;;
30605;SDS011;17371;51.328;3.860;2023-04-01T13:30:43;7.53;;;1.60;;
30605;SDS011;17371;51.328;3.860;2023-04-01T13:33:14;9.77;;;2.20;;
30605;SDS011;17371;51.328;3.860;2023-04-01T13:35:44;6.97;;;1.67;;
30605;SDS011;17371;51.328;3.860;2023-04-01T13:38:25;6.35;;;1.50;;
30605;SDS011;17371;51.328;3.860;2023-04-01T13:40:59;2.90;;;1.20;;
30605;SDS011;17371;51.328;3.860;2023-04-01T13:43:28;5.95;;;1.30;;
30605;SDS011;17371;51.328;3.860;2023-04-01T13:46:15;7.13;;;1.55;;
30605;SDS011;17371;51.328;3.860;2023-04-01T13:57:30;6.32;;;1.55;;
30605;SDS011;17371;51.328;3.860;2023-04-01T14:00:06;5.28;;;1.70;;
30605;SDS011;17371;51.328;3.860;2023-04-01T14:02:41;4.60;;;1.42;;
30605;SDS011;17371;51.328;3.860;2023-04-01T14:05:15;4.25;;;1.38;;
30605;SDS011;17371;51.328;3.860;2023-04-01T14:07:55;3.03;;;1.43;;
30605;SDS011;17371;51.328;3.860;2023-04-01T14:10:29;7.97;;;1.65;;
30605;SDS011;17371;51.328;3.860;2023-04-01T14:13:01;4.38;;;1.70;;
30605;SDS011;17371;51.328;3.860;2023-04-01T14:15:41;4.85;;;1.23;;
30605;SDS011;17371;51.328;3.860;2023-04-01T14:18:30;4.53;;;1.50;;
30605;SDS011;17371;51.328;3.860;2023-04-01T14:21:07;5.17;;;1.50;;
30605;SDS011;17371;51.328;3.860;2023-04-01T14:23:46;2.88;;;1.20;;
30605;SDS011;17371;51.328;3.860;2023-04-01T14:26:20;4.40;;;1.70;;
30605;SDS011;17371;51.328;3.860;2023-04-01T14:28:54;5.50;;;1.60;;
30605;SDS011;17371;51.328;3.860;2023-04-01T14:34:21;4.07;;;1.53;;
30605;SDS011;17371;51.328;3.860;2023-04-01T14:36:56;5.63;;;1.23;;
30605;SDS011;17371;51.328;3.860;2023-04-01T14:39:38;6.88;;;2.05;;
30605;SDS011;17371;51.328;3.860;2023-04-01T14:42:16;8.63;;;2.20;;
30605;SDS011;17371;51.328;3.860;2023-04-01T14:45:02;2.80;;;1.30;;
30605;SDS011;17371;51.328;3.860;2023-04-01T14:47:43;10.67;;;1.73;;
30605;SDS011;17371;51.328;3.860;2023-04-01T14:50:12;4.65;;;1.45;;
30605;SDS011;17371;51.328;3.860;2023-04-01T14:52:39;6.47;;;1.92;;
30605;SDS011;17371;51.328;3.860;2023-04-01T14:55:17;5.78;;;1.45;;
30605;SDS011;17371;51.328;3.860;2023-04-01T14:57:57;10.25;;;1.70;;
30605;SDS011;17371;51.328;3.860;2023-04-01T15:00:23;3.63;;;0.80;;
30605;SDS011;17371;51.328;3.860;2023-04-01T15:02:50;6.68;;;1.40;;
30605;SDS011;17371;51.328;3.860;2023-04-01T15:05:26;5.33;;;1.30;;
30605;SDS011;17371;51.328;3.860;2023-04-01T15:08:06;2.22;;;1.13;;
30605;SDS011;17371;51.328;3.860;2023-04-01T15:10:51;8.02;;;1.95;;
30605;SDS011;17371;51.328;3.860;2023-04-01T15:13:41;6.95;;;1.80;;
30605;SDS011;17371;51.328;3.860;2023-04-01T15:16:17;15.35;;;1.75;;
30605;SDS011;17371;51.328;3.860;2023-04-01T15:18:49;10.47;;;2.20;;
30605;SDS011;17371;51.328;3.860;2023-04-01T15:21:19;5.55;;;1.77;;
30605;SDS011;17371;51.328;3.860;2023-04-01T15:23:56;7.00;;;1.92;;
30605;SDS011;17371;51.328;3.860;2023-04-01T15:26:30;6.90;;;2.00;;
30605;SDS011;17371;51.328;3.860;2023-04-01T15:29:06;9.95;;;2.15;;
30605;SDS011;17371;51.328;3.860;2023-04-01T15:31:42;6.90;;;2.07;;
30605;SDS011;17371;51.328;3.860;2023-04-01T15:34:18;8.13;;;2.58;;
30605;SDS011;17371;51.328;3.860;2023-04-01T15:36:50;6.85;;;3.17;;
30605;SDS011;17371;51.328;3.860;2023-04-01T15:39:18;10.63;;;3.30;;
30605;SDS011;17371;51.328;3.860;2023-04-01T15:41:51;10.05;;;3.45;;
30605;SDS011;17371;51.328;3.860;2023-04-01T15:44:34;5.83;;;2.70;;
30605;SDS011;17371;51.328;3.860;2023-04-01T15:47:08;11.60;;;3.28;;
30605;SDS011;17371;51.328;3.860;2023-04-01T15:49:55;6.72;;;2.28;;
30605;SDS011;17371;51.328;3.860;2023-04-01T15:52:23;4.93;;;2.22;;
30605;SDS011;17371;51.328;3.860;2023-04-01T15:54:56;9.05;;;2.65;;
30605;SDS011;17371;51.328;3.860;2023-04-01T15:57:32;9.00;;;2.90;;
30605;SDS011;17371;51.328;3.860;2023-04-01T16:00:10;9.68;;;3.50;;
30605;SDS011;17371;51.328;3.860;2023-04-01T16:02:43;5.15;;;2.88;;
30605;SDS011;17371;51.328;3.860;2023-04-01T16:05:16;10.82;;;4.40;;
30605;SDS011;17371;51.328;3.860;2023-04-01T16:07:54;10.13;;;5.00;;
30605;SDS011;17371;51.328;3.860;2023-04-01T16:13:27;16.77;;;4.15;;
30605;SDS011;17371;51.328;3.860;2023-04-01T16:15:58;14.35;;;4.00;;
30605;SDS011;17371;51.328;3.860;2023-04-01T16:18:38;19.55;;;4.80;;
30605;SDS011;17371;51.328;3.860;2023-04-01T16:21:11;14.68;;;2.95;;
30605;SDS011;17371;51.328;3.860;2023-04-01T16:23:38;7.63;;;2.83;;
30605;SDS011;17371;51.328;3.860;2023-04-01T16:26:07;8.05;;;3.40;;
30605;SDS011;17371;51.328;3.860;2023-04-01T16:28:36;7.53;;;2.97;;
30605;SDS011;17371;51.328;3.860;2023-04-01T16:31:05;13.93;;;2.88;;
30605;SDS011;17371;51.328;3.860;2023-04-01T16:33:35;11.93;;;3.85;;
30605;SDS011;17371;51.328;3.860;2023-04-01T16:36:08;7.00;;;2.50;;
30605;SDS011;17371;51.328;3.860;2023-04-01T16:38:36;7.93;;;2.95;;
30605;SDS011;17371;51.328;3.860;2023-04-01T16:41:07;7.55;;;2.42;;
30605;SDS011;17371;51.328;3.860;2023-04-01T16:43:40;4.93;;;2.45;;
30605;SDS011;17371;51.328;3.860;2023-04-01T16:46:26;8.90;;;2.65;;
30605;SDS011;17371;51.328;3.860;2023-04-01T16:49:00;6.93;;;2.30;;